createdAt,value
2019-01-20T00:00:52.511Z,-4.30
2019-01-20T00:03:49.236Z,-4.35
2019-01-20T00:06:44.977Z,-4.39
2019-01-20T00:09:45.852Z,-4.42
2019-01-20T00:12:41.389Z,-4.44
2019-01-20T00:15:38.129Z,-4.45
2019-01-20T00:18:33.923Z,-4.45
2019-01-20T00:21:30.198Z,-4.49
2019-01-20T00:24:26.806Z,-4.49
2019-01-20T00:27:24.611Z,-4.49
2019-01-20T00:30:21.227Z,-4.51
2019-01-20T00:33:19.003Z,-4.50
2019-01-20T00:36:19.707Z,-4.51
2019-01-20T00:39:16.283Z,-4.54
2019-01-20T00:42:13.982Z,-4.57
2019-01-20T00:45:27.205Z,-4.58
2019-01-20T00:48:25.841Z,-4.61
2019-01-20T00:51:34.315Z,-4.62
2019-01-20T00:54:29.664Z,-4.65
2019-01-20T00:57:26.703Z,-4.66
2019-01-20T01:00:26.379Z,-4.68
2019-01-20T01:03:22.305Z,-4.71
2019-01-20T01:06:18.826Z,-4.72
2019-01-20T01:09:15.148Z,-4.73
2019-01-20T01:12:10.683Z,-4.81
2019-01-20T01:15:07.241Z,-4.85
2019-01-20T01:18:03.902Z,-4.87
2019-01-20T01:21:01.402Z,-4.90
2019-01-20T01:23:57.231Z,-4.94
2019-01-20T01:26:55.066Z,-4.98
2019-01-20T01:29:50.693Z,-4.99
2019-01-20T01:32:47.306Z,-4.98
2019-01-20T01:35:42.849Z,-5.05
2019-01-20T01:38:40.718Z,-5.12
2019-01-20T01:41:39.161Z,-5.19
2019-01-20T01:44:33.081Z,-5.20
2019-01-20T01:47:30.341Z,-5.17
2019-01-20T01:50:25.174Z,-5.18
2019-01-20T01:53:24.195Z,-5.19
2019-01-20T01:56:19.661Z,-5.17
2019-01-20T01:59:16.395Z,-5.17
2019-01-20T02:02:12.911Z,-5.22
2019-01-20T02:05:08.379Z,-5.15
2019-01-20T02:08:05.151Z,-5.15
2019-01-20T02:11:01.909Z,-5.14
2019-01-20T02:14:03.511Z,-5.13
2019-01-20T02:16:59.191Z,-5.11
2019-01-20T02:19:55.481Z,-5.09
2019-01-20T02:22:52.041Z,-5.08
2019-01-20T02:25:48.559Z,-5.11
2019-01-20T02:28:45.297Z,-5.08
2019-01-20T02:31:42.059Z,-5.08
2019-01-20T02:34:38.805Z,-5.12
2019-01-20T02:37:34.474Z,-5.11
2019-01-20T02:40:30.612Z,-5.12
2019-01-20T02:43:26.692Z,-5.14
2019-01-20T02:46:23.421Z,-5.15
2019-01-20T02:49:20.164Z,-5.14
2019-01-20T02:52:16.947Z,-5.13
2019-01-20T02:55:13.540Z,-5.14
2019-01-20T02:58:09.987Z,-5.15
2019-01-20T03:01:07.780Z,-5.14
2019-01-20T03:04:09.338Z,-5.18
2019-01-20T03:07:16.170Z,-5.19
2019-01-20T03:10:11.883Z,-5.20
2019-01-20T03:13:08.641Z,-5.24
2019-01-20T03:16:04.191Z,-5.35
2019-01-20T03:19:01.068Z,-5.35
2019-01-20T03:21:58.056Z,-5.35
2019-01-20T03:24:53.675Z,-5.39
2019-01-20T03:27:50.143Z,-5.43
2019-01-20T03:30:45.616Z,-5.43
2019-01-20T03:33:42.203Z,-5.50
2019-01-20T03:36:37.352Z,-5.53
2019-01-20T03:39:35.087Z,-5.51
2019-01-20T03:42:31.786Z,-5.59
2019-01-20T03:45:34.252Z,-5.55
2019-01-20T03:48:30.203Z,-5.58
2019-01-20T03:51:25.170Z,-5.59
2019-01-20T03:54:22.821Z,-5.59
2019-01-20T03:57:19.398Z,-5.61
2019-01-20T04:00:15.877Z,-5.55
2019-01-20T04:03:14.523Z,-5.56
2019-01-20T04:06:21.229Z,-5.58
2019-01-20T04:09:17.989Z,-5.55
2019-01-20T04:12:20.494Z,-5.52
2019-01-20T04:15:10.175Z,-5.53
2019-01-20T04:18:06.339Z,-5.51
2019-01-20T04:21:03.833Z,-5.53
2019-01-20T04:24:00.754Z,-5.58
2019-01-20T04:26:55.524Z,-5.64
2019-01-20T04:29:53.237Z,-5.71
2019-01-20T04:32:49.916Z,-5.70
2019-01-20T04:35:46.444Z,-5.72
2019-01-20T04:38:42.951Z,-5.73
2019-01-20T04:41:38.661Z,-5.69
2019-01-20T04:44:34.497Z,-5.69
2019-01-20T04:47:30.097Z,-5.68
2019-01-20T04:50:28.607Z,-5.72
2019-01-20T04:53:33.833Z,-5.72
2019-01-20T04:56:29.779Z,-5.75
2019-01-20T04:59:25.252Z,-5.72
2019-01-20T05:02:21.715Z,-5.73
2019-01-20T05:05:19.312Z,-5.77
2019-01-20T05:08:15.813Z,-5.77
2019-01-20T05:11:13.540Z,-5.75
2019-01-20T05:14:09.095Z,-5.76
2019-01-20T05:17:16.917Z,-5.74
2019-01-20T05:20:26.909Z,-5.74
2019-01-20T05:23:22.654Z,-5.76
2019-01-20T05:26:19.168Z,-5.79
2019-01-20T05:29:14.409Z,-5.83
2019-01-20T05:32:11.046Z,-5.81
2019-01-20T05:35:07.722Z,-5.81
2019-01-20T05:38:04.252Z,-5.82
2019-01-20T05:41:01.294Z,-5.83
2019-01-20T05:43:56.164Z,-5.84
2019-01-20T05:46:52.856Z,-5.85
2019-01-20T05:49:48.577Z,-5.88
2019-01-20T05:52:46.245Z,-5.90
2019-01-20T05:55:42.780Z,-5.93
2019-01-20T05:58:38.317Z,-5.91
2019-01-20T06:01:35.996Z,-5.89
2019-01-20T06:04:31.510Z,-5.90
2019-01-20T06:07:27.402Z,-5.89
2019-01-20T06:10:23.698Z,-5.89
2019-01-20T06:13:19.400Z,-5.92
2019-01-20T06:16:15.886Z,-5.92
2019-01-20T06:19:11.558Z,-5.97
2019-01-20T06:22:09.709Z,-6.05
2019-01-20T06:25:05.300Z,-6.12
2019-01-20T06:28:01.828Z,-6.16
2019-01-20T06:30:57.652Z,-6.16
2019-01-20T06:33:53.197Z,-6.15
2019-01-20T06:36:49.672Z,-6.17
2019-01-20T06:39:45.356Z,-6.17
2019-01-20T06:42:42.594Z,-6.14
2019-01-20T06:45:37.970Z,-6.13
2019-01-20T06:48:34.740Z,-6.19
2019-01-20T06:51:30.825Z,-6.23
2019-01-20T06:54:27.387Z,-6.30
2019-01-20T06:57:22.891Z,-6.23
2019-01-20T07:00:19.628Z,-6.16
2019-01-20T07:03:17.569Z,-6.14
2019-01-20T07:06:13.075Z,-6.10
2019-01-20T07:09:10.671Z,-6.11
2019-01-20T07:12:07.414Z,-6.10
2019-01-20T07:15:04.239Z,-6.13
2019-01-20T07:18:01.060Z,-6.13
2019-01-20T07:20:56.528Z,-6.16
2019-01-20T07:23:54.277Z,-6.17
2019-01-20T07:26:50.788Z,-6.15
2019-01-20T07:29:48.392Z,-6.16
2019-01-20T07:32:51.380Z,-6.19
2019-01-20T07:35:49.151Z,-6.19
2019-01-20T07:38:45.819Z,-6.23
2019-01-20T07:41:40.846Z,-6.15
2019-01-20T07:44:37.428Z,-6.09
2019-01-20T07:47:32.290Z,-6.20
2019-01-20T07:50:29.738Z,-6.20
2019-01-20T07:53:27.270Z,-6.13
2019-01-20T07:56:22.756Z,-6.12
2019-01-20T07:59:19.252Z,-6.14
2019-01-20T08:02:15.752Z,-6.14
2019-01-20T08:05:12.586Z,-6.04
2019-01-20T08:08:07.920Z,-6.08
2019-01-20T08:11:03.511Z,-6.06
2019-01-20T08:14:00.592Z,-5.98
2019-01-20T08:16:56.816Z,-5.90
2019-01-20T08:19:54.123Z,-5.83
2019-01-20T08:22:50.626Z,-5.82
2019-01-20T08:25:47.205Z,-5.77
2019-01-20T08:28:43.974Z,-5.72
2019-01-20T08:31:39.476Z,-5.67
2019-01-20T08:34:36.008Z,-5.73
2019-01-20T08:37:31.681Z,-5.71
2019-01-20T08:40:29.771Z,-5.60
2019-01-20T08:43:31.698Z,-5.59
2019-01-20T08:46:39.697Z,-5.56
2019-01-20T08:49:41.380Z,-5.56
2019-01-20T08:52:37.914Z,-5.52
2019-01-20T08:55:33.586Z,-5.63
2019-01-20T08:58:29.986Z,-5.61
2019-01-20T09:01:26.788Z,-5.55
2019-01-20T09:04:23.450Z,-5.57
2019-01-20T09:07:20.166Z,-5.59
2019-01-20T09:10:16.690Z,-5.54
2019-01-20T09:13:16.499Z,-5.41
2019-01-20T09:16:12.763Z,-5.37
2019-01-20T09:19:08.822Z,-5.39
2019-01-20T09:22:04.582Z,-5.39
2019-01-20T09:25:03.066Z,-5.32
2019-01-20T09:27:58.060Z,-5.22
2019-01-20T09:30:54.798Z,-5.23
2019-01-20T09:33:51.397Z,-5.19
2019-01-20T09:36:46.902Z,-5.14
2019-01-20T09:39:43.133Z,-5.07
2019-01-20T09:42:38.301Z,-4.96
2019-01-20T09:45:58.082Z,-4.86
2019-01-20T09:48:55.768Z,-4.85
2019-01-20T09:51:59.018Z,-4.83
2019-01-20T09:54:56.545Z,-4.76
2019-01-20T09:57:52.077Z,-4.62
2019-01-20T10:00:49.781Z,-4.54
2019-01-20T10:03:45.528Z,-4.48
2019-01-20T10:06:42.258Z,-4.54
2019-01-20T10:09:37.798Z,-4.51
2019-01-20T10:12:34.249Z,-4.44
2019-01-20T10:15:33.097Z,-4.42
2019-01-20T10:18:29.874Z,-4.36
2019-01-20T10:21:26.424Z,-4.29
2019-01-20T10:24:22.160Z,-4.24
2019-01-20T10:27:19.917Z,-4.34
2019-01-20T10:30:15.631Z,-4.41
2019-01-20T10:33:12.322Z,-4.26
2019-01-20T10:36:16.581Z,-4.26
2019-01-20T10:39:14.056Z,-4.23
2019-01-20T10:42:10.838Z,-4.14
2019-01-20T10:45:07.637Z,-4.05
2019-01-20T10:48:03.232Z,-3.96
2019-01-20T10:50:58.786Z,-3.96
2019-01-20T10:53:55.387Z,-3.85
2019-01-20T10:56:50.851Z,-3.85
2019-01-20T10:59:47.387Z,-3.83
2019-01-20T11:02:43.187Z,-3.89
2019-01-20T11:05:41.797Z,-3.88
2019-01-20T11:08:38.136Z,-3.88
2019-01-20T11:11:33.448Z,-3.81
2019-01-20T11:14:30.195Z,-3.74
2019-01-20T11:17:27.827Z,-3.65
2019-01-20T11:20:25.514Z,-3.68
2019-01-20T11:23:21.966Z,-3.66
2019-01-20T11:26:18.649Z,-3.64
2019-01-20T11:29:14.599Z,-3.56
2019-01-20T11:32:10.061Z,-3.52
2019-01-20T11:35:06.982Z,-3.43
2019-01-20T11:38:03.669Z,-3.37
2019-01-20T11:41:00.409Z,-3.33
2019-01-20T11:43:56.128Z,-3.33
2019-01-20T11:46:52.808Z,-3.36
2019-01-20T11:49:49.558Z,-3.31
2019-01-20T11:52:45.218Z,-3.35
2019-01-20T11:55:43.865Z,-3.31
2019-01-20T11:58:39.634Z,-3.24
2019-01-20T12:01:47.606Z,-3.26
2019-01-20T12:04:43.947Z,-3.17
2019-01-20T12:07:39.950Z,-3.07
2019-01-20T12:10:37.041Z,-3.10
2019-01-20T12:13:42.568Z,-3.02
2019-01-20T12:16:39.665Z,-2.95
2019-01-20T12:19:36.693Z,-2.87
2019-01-20T12:22:33.255Z,-2.84
2019-01-20T12:25:30.270Z,-2.82
2019-01-20T12:28:27.916Z,-2.81
2019-01-20T12:31:24.692Z,-2.86
2019-01-20T12:34:21.077Z,-2.85
2019-01-20T12:37:18.764Z,-2.74
2019-01-20T12:40:14.377Z,-2.65
2019-01-20T12:43:11.061Z,-2.64
2019-01-20T12:46:06.643Z,-2.46
2019-01-20T12:49:06.941Z,-2.41
2019-01-20T12:52:04.746Z,-2.36
2019-01-20T12:55:07.382Z,-2.33
2019-01-20T12:58:05.101Z,-2.30
2019-01-20T13:01:00.675Z,-2.33
2019-01-20T13:03:57.421Z,-2.46
2019-01-20T13:06:54.012Z,-2.44
2019-01-20T13:09:50.809Z,-2.37
2019-01-20T13:12:45.971Z,-2.35
2019-01-20T13:15:43.484Z,-2.41
2019-01-20T13:18:40.109Z,-2.39
2019-01-20T13:21:38.437Z,-2.44
2019-01-20T13:24:34.332Z,-2.48
2019-01-20T13:27:32.175Z,-2.40
2019-01-20T13:30:29.115Z,-2.42
2019-01-20T13:33:25.661Z,-2.45
2019-01-20T13:36:22.180Z,-2.36
2019-01-20T13:39:18.992Z,-2.27
2019-01-20T13:42:14.496Z,-2.24
2019-01-20T13:45:10.987Z,-2.22
2019-01-20T13:48:08.169Z,-2.23
2019-01-20T13:51:04.712Z,-2.18
2019-01-20T13:54:00.261Z,-2.05
2019-01-20T13:56:58.011Z,-2.02
2019-01-20T13:59:53.685Z,-2.14
2019-01-20T14:02:50.266Z,-2.23
2019-01-20T14:05:46.085Z,-2.26
2019-01-20T14:08:44.318Z,-2.31
2019-01-20T14:11:39.553Z,-2.30
2019-01-20T14:14:35.660Z,-2.22
2019-01-20T14:17:38.723Z,-2.27
2019-01-20T14:20:49.075Z,-2.33
2019-01-20T14:23:44.567Z,-2.33
2019-01-20T14:26:41.247Z,-2.50
2019-01-20T14:29:36.130Z,-2.60
2019-01-20T14:32:32.805Z,-2.65
2019-01-20T14:35:29.492Z,-2.63
2019-01-20T14:38:27.397Z,-2.66
2019-01-20T14:41:23.365Z,-2.59
2019-01-20T14:44:19.735Z,-2.62
2019-01-20T14:47:15.565Z,-2.61
2019-01-20T14:50:11.972Z,-2.59
2019-01-20T14:53:08.496Z,-2.61
2019-01-20T14:56:04.909Z,-2.61
2019-01-20T14:59:01.511Z,-2.71
2019-01-20T15:01:58.130Z,-2.81
2019-01-20T15:04:53.931Z,-2.85
2019-01-20T15:07:49.996Z,-2.92
2019-01-20T15:10:45.507Z,-2.98
2019-01-20T15:13:42.199Z,-2.99
2019-01-20T15:16:37.799Z,-3.01
2019-01-20T15:19:38.442Z,-2.97
2019-01-20T15:22:35.355Z,-2.94
2019-01-20T15:25:33.205Z,-2.96
2019-01-20T15:28:29.486Z,-2.99
2019-01-20T15:31:26.983Z,-3.05
2019-01-20T15:34:22.918Z,-3.03
2019-01-20T15:37:19.733Z,-3.03
2019-01-20T15:40:21.892Z,-3.05
2019-01-20T15:43:17.886Z,-3.00
2019-01-20T15:46:17.937Z,-3.01
2019-01-20T15:49:16.786Z,-3.06
2019-01-20T15:52:12.570Z,-3.09
2019-01-20T15:55:09.368Z,-3.15
2019-01-20T15:58:05.846Z,-3.19
2019-01-20T16:01:02.435Z,-3.18
2019-01-20T16:04:01.661Z,-3.24
2019-01-20T16:06:58.442Z,-3.24
2019-01-20T16:09:55.351Z,-3.24
2019-01-20T16:12:52.011Z,-3.26
2019-01-20T16:15:49.062Z,-3.29
2019-01-20T16:18:46.209Z,-3.34
2019-01-20T16:21:43.442Z,-3.35
2019-01-20T16:24:40.831Z,-3.39
2019-01-20T16:27:38.231Z,-3.39
2019-01-20T16:30:37.720Z,-3.40
2019-01-20T16:33:35.428Z,-3.42
2019-01-20T16:36:38.276Z,-3.39
2019-01-20T16:39:37.935Z,-3.39
2019-01-20T16:42:34.870Z,-3.40
2019-01-20T16:45:32.987Z,-3.41
2019-01-20T16:48:27.432Z,-3.44
2019-01-20T16:51:24.051Z,-3.48
2019-01-20T16:54:20.735Z,-3.49
2019-01-20T16:57:16.233Z,-3.47
2019-01-20T17:00:13.092Z,-3.46
2019-01-20T17:03:08.060Z,-3.45
2019-01-20T17:06:04.763Z,-3.45
2019-01-20T17:09:00.368Z,-3.45
2019-01-20T17:11:57.306Z,-3.46
2019-01-20T17:14:52.940Z,-3.50
2019-01-20T17:17:49.695Z,-3.53
2019-01-20T17:20:46.425Z,-3.50
2019-01-20T17:23:43.336Z,-3.46
2019-01-20T17:26:39.387Z,-3.47
2019-01-20T17:29:36.635Z,-3.47
2019-01-20T17:32:33.456Z,-3.49
2019-01-20T17:35:30.248Z,-3.46
2019-01-20T17:38:26.149Z,-3.48
2019-01-20T17:41:35.149Z,-3.46
2019-01-20T17:44:31.990Z,-3.46
2019-01-20T17:47:28.834Z,-3.48
2019-01-20T17:50:28.964Z,-3.49
2019-01-20T17:53:25.631Z,-3.49
2019-01-20T17:56:23.386Z,-3.48
2019-01-20T17:59:26.631Z,-3.48
2019-01-20T18:02:22.192Z,-3.50
2019-01-20T18:05:19.229Z,-3.51
2019-01-20T18:08:15.053Z,-3.47
2019-01-20T18:11:13.856Z,-3.42
2019-01-20T18:14:08.932Z,-3.43
2019-01-20T18:17:05.802Z,-3.46
2019-01-20T18:20:02.539Z,-3.48
2019-01-20T18:22:59.390Z,-3.45
2019-01-20T18:25:55.285Z,-3.46
2019-01-20T18:28:52.882Z,-3.47
2019-01-20T18:31:48.679Z,-3.46
2019-01-20T18:34:46.250Z,-3.45
2019-01-20T18:37:42.231Z,-3.43
2019-01-20T18:40:38.928Z,-3.41
2019-01-20T18:43:35.344Z,-3.40
2019-01-20T18:46:32.241Z,-3.43
2019-01-20T18:49:29.462Z,-3.43
2019-01-20T18:52:32.586Z,-3.42
2019-01-20T18:55:39.524Z,-3.39
2019-01-20T18:58:36.565Z,-3.37
2019-01-20T19:01:34.343Z,-3.39
2019-01-20T19:04:31.084Z,-3.36
2019-01-20T19:07:26.419Z,-3.39
2019-01-20T19:10:23.302Z,-3.40
2019-01-20T19:13:19.031Z,-3.39
2019-01-20T19:16:15.733Z,-3.39
2019-01-20T19:19:11.385Z,-3.38
2019-01-20T19:22:10.332Z,-3.36
2019-01-20T19:25:07.123Z,-3.35
2019-01-20T19:28:02.983Z,-3.39
2019-01-20T19:31:01.845Z,-3.41
2019-01-20T19:33:58.406Z,-3.43
2019-01-20T19:36:55.043Z,-3.45
2019-01-20T19:39:51.411Z,-3.42
2019-01-20T19:42:47.848Z,-3.34
2019-01-20T19:45:43.739Z,-3.35
2019-01-20T19:48:42.815Z,-3.39
2019-01-20T19:51:39.811Z,-3.38
2019-01-20T19:54:35.956Z,-3.37
2019-01-20T19:57:33.098Z,-3.39
2019-01-20T20:00:40.031Z,-3.43
2019-01-20T20:03:37.863Z,-3.39
2019-01-20T20:06:33.812Z,-3.45
2019-01-20T20:09:35.658Z,-3.46
2019-01-20T20:12:35.537Z,-3.48
2019-01-20T20:15:33.290Z,-3.49
2019-01-20T20:18:33.684Z,-3.49
2019-01-20T20:21:30.300Z,-3.49
2019-01-20T20:24:26.856Z,-3.48
2019-01-20T20:27:23.022Z,-3.47
2019-01-20T20:30:19.708Z,-3.50
2019-01-20T20:33:18.310Z,-3.49
2019-01-20T20:36:13.316Z,-3.50
2019-01-20T20:39:10.457Z,-3.48
2019-01-20T20:42:06.144Z,-3.52
2019-01-20T20:45:03.298Z,-3.50
2019-01-20T20:48:01.326Z,-3.50
2019-01-20T20:50:57.524Z,-3.50
2019-01-20T20:53:55.377Z,-3.45
2019-01-20T20:56:51.425Z,-3.47
2019-01-20T20:59:48.482Z,-3.48
2019-01-20T21:02:44.478Z,-3.49
2019-01-20T21:05:41.038Z,-3.47
2019-01-20T21:08:36.581Z,-3.49
2019-01-20T21:11:38.263Z,-3.49
2019-01-20T21:14:34.276Z,-3.49
2019-01-20T21:17:30.898Z,-3.49
2019-01-20T21:20:27.843Z,-3.52
2019-01-20T21:23:25.528Z,-3.52
2019-01-20T21:26:21.059Z,-3.51
2019-01-20T21:29:17.706Z,-3.52
2019-01-20T21:32:13.662Z,-3.51
2019-01-20T21:35:11.132Z,-3.52
2019-01-20T21:38:07.156Z,-3.49
2019-01-20T21:41:04.164Z,-3.47
2019-01-20T21:44:00.882Z,-3.46
2019-01-20T21:46:57.697Z,-3.47
2019-01-20T21:49:53.452Z,-3.43
2019-01-20T21:52:50.105Z,-3.40
2019-01-20T21:55:44.752Z,-3.44
2019-01-20T21:58:41.258Z,-3.45
2019-01-20T22:01:36.986Z,-3.47
2019-01-20T22:04:34.551Z,-3.50
2019-01-20T22:07:31.229Z,-3.50
2019-01-20T22:10:28.964Z,-3.50
2019-01-20T22:13:25.379Z,-3.49
2019-01-20T22:16:21.838Z,-3.47
2019-01-20T22:19:17.417Z,-3.48
2019-01-20T22:22:12.973Z,-3.43
2019-01-20T22:25:15.513Z,-3.45
2019-01-20T22:28:13.011Z,-3.46
2019-01-20T22:31:09.763Z,-3.46
2019-01-20T22:34:06.083Z,-3.44
2019-01-20T22:37:03.908Z,-3.43
2019-01-20T22:39:59.441Z,-3.42
2019-01-20T22:42:56.228Z,-3.41
2019-01-20T22:45:52.324Z,-3.41
2019-01-20T22:48:49.099Z,-3.40
2019-01-20T22:51:44.567Z,-3.38
2019-01-20T22:54:42.147Z,-3.38
2019-01-20T22:57:37.685Z,-3.38
2019-01-20T23:01:03.134Z,-3.38
2019-01-20T23:03:59.567Z,-3.37
2019-01-20T23:06:55.324Z,-3.38
2019-01-20T23:09:51.809Z,-3.40
2019-01-20T23:12:46.433Z,-3.38
2019-01-20T23:15:42.503Z,-3.40
2019-01-20T23:18:37.995Z,-3.38
2019-01-20T23:21:33.644Z,-3.40
2019-01-20T23:24:41.358Z,-3.42
2019-01-20T23:27:38.944Z,-3.39
2019-01-20T23:30:34.314Z,-3.35
2019-01-20T23:33:31.037Z,-3.40
2019-01-20T23:36:27.829Z,-3.37
2019-01-20T23:39:24.981Z,-3.39
2019-01-20T23:42:20.795Z,-3.42
2019-01-20T23:45:17.770Z,-3.44
2019-01-20T23:48:12.707Z,-3.42
2019-01-20T23:51:09.163Z,-3.42
2019-01-20T23:54:04.794Z,-3.41
2019-01-20T23:57:01.349Z,-3.43
2019-01-20T23:59:57.059Z,-3.45
